sensor_id;sensor_type;location;lat;lon;timestamp;temperature;humidity
47382;DHT22;33128;51.580;5.170;2023-03-12T00:01:47;5.60;99.90
47382;DHT22;33128;51.580;5.170;2023-03-12T00:04:13;5.50;99.90
47382;DHT22;33128;51.580;5.170;2023-03-12T00:06:39;5.60;99.90
47382;DHT22;33128;51.580;5.170;2023-03-12T00:09:04;5.60;99.90
47382;DHT22;33128;51.580;5.170;2023-03-12T00:11:33;5.80;99.90
47382;DHT22;33128;51.580;5.170;2023-03-12T00:13:59;6.10;99.90
47382;DHT22;33128;51.580;5.170;2023-03-12T00:16:25;6.20;99.90
47382;DHT22;33128;51.580;5.170;2023-03-12T00:18:53;6.40;99.90
47382;DHT22;33128;51.580;5.170;2023-03-12T00:21:19;6.30;99.90
47382;DHT22;33128;51.580;5.170;2023-03-12T00:23:47;6.00;99.90
47382;DHT22;33128;51.580;5.170;2023-03-12T00:26:14;6.00;99.90
47382;DHT22;33128;51.580;5.170;2023-03-12T00:28:40;5.80;99.90
47382;DHT22;33128;51.580;5.170;2023-03-12T00:33:39;5.60;99.90
47382;DHT22;33128;51.580;5.170;2023-03-12T00:36:05;5.90;99.90
47382;DHT22;33128;51.580;5.170;2023-03-12T00:38:33;6.10;99.90
47382;DHT22;33128;51.580;5.170;2023-03-12T00:41:02;6.30;99.90
47382;DHT22;33128;51.580;5.170;2023-03-12T00:43:28;6.00;99.90
47382;DHT22;33128;51.580;5.170;2023-03-12T00:45:53;5.80;99.90
47382;DHT22;33128;51.580;5.170;2023-03-12T00:48:19;5.80;99.90
47382;DHT22;33128;51.580;5.170;2023-03-12T00:50:44;5.90;99.90
47382;DHT22;33128;51.580;5.170;2023-03-12T00:53:10;5.90;99.90
47382;DHT22;33128;51.580;5.170;2023-03-12T00:55:35;5.50;99.90
47382;DHT22;33128;51.580;5.170;2023-03-12T00:58:01;5.70;99.90
47382;DHT22;33128;51.580;5.170;2023-03-12T01:00:27;5.80;99.90
47382;DHT22;33128;51.580;5.170;2023-03-12T01:02:52;6.20;99.90
47382;DHT22;33128;51.580;5.170;2023-03-12T01:05:18;6.10;99.90
47382;DHT22;33128;51.580;5.170;2023-03-12T01:07:47;5.80;99.90
47382;DHT22;33128;51.580;5.170;2023-03-12T01:10:14;5.80;99.90
47382;DHT22;33128;51.580;5.170;2023-03-12T01:12:40;5.80;99.90
47382;DHT22;33128;51.580;5.170;2023-03-12T01:15:06;5.80;99.90
47382;DHT22;33128;51.580;5.170;2023-03-12T01:17:32;6.20;99.90
47382;DHT22;33128;51.580;5.170;2023-03-12T01:19:57;6.40;99.90
47382;DHT22;33128;51.580;5.170;2023-03-12T01:22:23;6.10;99.90
47382;DHT22;33128;51.580;5.170;2023-03-12T01:24:49;5.60;99.90
47382;DHT22;33128;51.580;5.170;2023-03-12T01:27:14;5.70;99.90
47382;DHT22;33128;51.580;5.170;2023-03-12T01:29:40;6.20;99.90
47382;DHT22;33128;51.580;5.170;2023-03-12T01:32:06;6.20;99.90
47382;DHT22;33128;51.580;5.170;2023-03-12T01:34:31;6.20;99.90
47382;DHT22;33128;51.580;5.170;2023-03-12T01:37:00;5.80;99.90
47382;DHT22;33128;51.580;5.170;2023-03-12T01:39:25;5.60;99.90
47382;DHT22;33128;51.580;5.170;2023-03-12T01:41:51;5.30;99.90
47382;DHT22;33128;51.580;5.170;2023-03-12T01:44:16;5.30;99.90
47382;DHT22;33128;51.580;5.170;2023-03-12T01:46:43;5.40;99.90
47382;DHT22;33128;51.580;5.170;2023-03-12T01:54:29;6.10;99.90
47382;DHT22;33128;51.580;5.170;2023-03-12T01:56:57;6.00;99.90
47382;DHT22;33128;51.580;5.170;2023-03-12T01:59:28;5.70;99.90
47382;DHT22;33128;51.580;5.170;2023-03-12T02:01:55;5.50;99.90
47382;DHT22;33128;51.580;5.170;2023-03-12T02:04:23;5.70;99.90
47382;DHT22;33128;51.580;5.170;2023-03-12T02:06:52;5.90;99.90
47382;DHT22;33128;51.580;5.170;2023-03-12T02:09:20;5.50;99.90
47382;DHT22;33128;51.580;5.170;2023-03-12T02:11:46;5.50;99.90
47382;DHT22;33128;51.580;5.170;2023-03-12T02:14:14;5.50;99.90
47382;DHT22;33128;51.580;5.170;2023-03-12T02:16:40;6.10;99.90
47382;DHT22;33128;51.580;5.170;2023-03-12T02:21:54;6.90;99.90
47382;DHT22;33128;51.580;5.170;2023-03-12T02:24:51;6.20;99.90
47382;DHT22;33128;51.580;5.170;2023-03-12T02:27:18;6.50;99.90
47382;DHT22;33128;51.580;5.170;2023-03-12T02:29:45;6.40;99.90
47382;DHT22;33128;51.580;5.170;2023-03-12T02:32:22;5.70;99.90
47382;DHT22;33128;51.580;5.170;2023-03-12T02:34:48;6.30;99.90
47382;DHT22;33128;51.580;5.170;2023-03-12T02:37:15;6.40;99.90
47382;DHT22;33128;51.580;5.170;2023-03-12T02:39:41;6.40;99.90
47382;DHT22;33128;51.580;5.170;2023-03-12T02:42:08;6.50;99.90
47382;DHT22;33128;51.580;5.170;2023-03-12T02:44:35;6.60;99.90
47382;DHT22;33128;51.580;5.170;2023-03-12T02:47:03;7.10;99.90
47382;DHT22;33128;51.580;5.170;2023-03-12T02:49:31;6.70;99.90
47382;DHT22;33128;51.580;5.170;2023-03-12T02:51:57;7.10;99.90
47382;DHT22;33128;51.580;5.170;2023-03-12T02:54:24;6.60;99.90
47382;DHT22;33128;51.580;5.170;2023-03-12T02:56:51;6.80;99.90
47382;DHT22;33128;51.580;5.170;2023-03-12T02:59:18;7.00;99.90
47382;DHT22;33128;51.580;5.170;2023-03-12T03:01:45;6.40;99.90
47382;DHT22;33128;51.580;5.170;2023-03-12T03:04:11;6.40;99.90
47382;DHT22;33128;51.580;5.170;2023-03-12T03:06:39;6.30;99.90
47382;DHT22;33128;51.580;5.170;2023-03-12T03:09:06;6.70;99.90
47382;DHT22;33128;51.580;5.170;2023-03-12T03:11:31;6.30;99.90
47382;DHT22;33128;51.580;5.170;2023-03-12T03:13:57;6.70;99.90
47382;DHT22;33128;51.580;5.170;2023-03-12T03:16:23;6.60;99.90
47382;DHT22;33128;51.580;5.170;2023-03-12T03:18:48;6.80;99.90
47382;DHT22;33128;51.580;5.170;2023-03-12T03:21:16;6.70;99.90
47382;DHT22;33128;51.580;5.170;2023-03-12T03:23:43;6.40;99.90
47382;DHT22;33128;51.580;5.170;2023-03-12T03:26:09;6.50;99.90
47382;DHT22;33128;51.580;5.170;2023-03-12T03:28:35;6.20;99.90
47382;DHT22;33128;51.580;5.170;2023-03-12T03:31:01;6.80;99.90
47382;DHT22;33128;51.580;5.170;2023-03-12T03:33:33;6.70;99.90
47382;DHT22;33128;51.580;5.170;2023-03-12T03:36:00;6.30;99.90
47382;DHT22;33128;51.580;5.170;2023-03-12T03:38:27;6.50;99.90
47382;DHT22;33128;51.580;5.170;2023-03-12T03:40:54;6.60;99.90
47382;DHT22;33128;51.580;5.170;2023-03-12T03:43:20;6.60;99.90
47382;DHT22;33128;51.580;5.170;2023-03-12T03:45:47;6.30;99.90
47382;DHT22;33128;51.580;5.170;2023-03-12T03:48:12;6.60;99.90
47382;DHT22;33128;51.580;5.170;2023-03-12T03:50:39;6.40;99.90
47382;DHT22;33128;51.580;5.170;2023-03-12T03:53:08;6.50;99.90
47382;DHT22;33128;51.580;5.170;2023-03-12T03:55:38;6.30;99.90
47382;DHT22;33128;51.580;5.170;2023-03-12T03:58:05;6.40;99.90
47382;DHT22;33128;51.580;5.170;2023-03-12T04:00:31;6.60;99.90
47382;DHT22;33128;51.580;5.170;2023-03-12T04:02:56;6.90;99.90
47382;DHT22;33128;51.580;5.170;2023-03-12T04:05:22;6.70;99.90
47382;DHT22;33128;51.580;5.170;2023-03-12T04:07:51;6.40;99.90
47382;DHT22;33128;51.580;5.170;2023-03-12T04:10:20;6.50;99.90
47382;DHT22;33128;51.580;5.170;2023-03-12T04:12:46;6.80;99.90
47382;DHT22;33128;51.580;5.170;2023-03-12T04:15:11;6.80;99.90
47382;DHT22;33128;51.580;5.170;2023-03-12T04:17:40;6.60;99.90
47382;DHT22;33128;51.580;5.170;2023-03-12T04:20:06;6.90;99.90
47382;DHT22;33128;51.580;5.170;2023-03-12T04:22:33;7.20;99.90
47382;DHT22;33128;51.580;5.170;2023-03-12T04:24:58;6.80;99.90
47382;DHT22;33128;51.580;5.170;2023-03-12T04:27:24;7.10;99.90
47382;DHT22;33128;51.580;5.170;2023-03-12T04:29:50;6.90;99.90
47382;DHT22;33128;51.580;5.170;2023-03-12T04:32:16;6.60;99.90
47382;DHT22;33128;51.580;5.170;2023-03-12T04:34:41;6.70;99.90
47382;DHT22;33128;51.580;5.170;2023-03-12T04:37:08;5.90;99.90
47382;DHT22;33128;51.580;5.170;2023-03-12T04:39:35;6.20;99.90
47382;DHT22;33128;51.580;5.170;2023-03-12T04:42:01;6.50;99.90
47382;DHT22;33128;51.580;5.170;2023-03-12T04:44:26;6.90;99.90
47382;DHT22;33128;51.580;5.170;2023-03-12T04:46:52;6.90;99.90
47382;DHT22;33128;51.580;5.170;2023-03-12T04:49:18;7.10;99.90
47382;DHT22;33128;51.580;5.170;2023-03-12T04:51:43;6.30;99.90
47382;DHT22;33128;51.580;5.170;2023-03-12T04:54:09;6.40;99.90
47382;DHT22;33128;51.580;5.170;2023-03-12T04:56:34;6.90;99.90
47382;DHT22;33128;51.580;5.170;2023-03-12T04:59:00;6.80;99.90
47382;DHT22;33128;51.580;5.170;2023-03-12T05:01:28;7.10;99.90
47382;DHT22;33128;51.580;5.170;2023-03-12T05:03:54;7.20;99.90
47382;DHT22;33128;51.580;5.170;2023-03-12T05:06:21;7.20;99.90
47382;DHT22;33128;51.580;5.170;2023-03-12T05:08:50;6.90;99.90
47382;DHT22;33128;51.580;5.170;2023-03-12T05:11:17;6.50;99.90
47382;DHT22;33128;51.580;5.170;2023-03-12T05:13:42;6.50;99.90
47382;DHT22;33128;51.580;5.170;2023-03-12T05:16:08;6.70;99.90
47382;DHT22;33128;51.580;5.170;2023-03-12T05:18:43;6.90;99.90
47382;DHT22;33128;51.580;5.170;2023-03-12T05:21:15;6.60;99.90
47382;DHT22;33128;51.580;5.170;2023-03-12T05:23:41;6.70;99.90
47382;DHT22;33128;51.580;5.170;2023-03-12T05:28:40;6.60;99.90
47382;DHT22;33128;51.580;5.170;2023-03-12T05:31:09;6.70;99.90
47382;DHT22;33128;51.580;5.170;2023-03-12T05:33:35;6.50;99.90
47382;DHT22;33128;51.580;5.170;2023-03-12T05:36:00;6.80;99.90
47382;DHT22;33128;51.580;5.170;2023-03-12T05:38:26;6.60;99.90
47382;DHT22;33128;51.580;5.170;2023-03-12T05:40:53;7.00;99.90
47382;DHT22;33128;51.580;5.170;2023-03-12T05:43:20;6.80;99.90
47382;DHT22;33128;51.580;5.170;2023-03-12T05:45:46;6.50;99.90
47382;DHT22;33128;51.580;5.170;2023-03-12T05:48:11;6.70;99.90
47382;DHT22;33128;51.580;5.170;2023-03-12T05:50:37;6.30;99.90
47382;DHT22;33128;51.580;5.170;2023-03-12T05:53:03;6.20;99.90
47382;DHT22;33128;51.580;5.170;2023-03-12T05:55:28;6.60;99.90
47382;DHT22;33128;51.580;5.170;2023-03-12T05:57:54;6.70;99.90
47382;DHT22;33128;51.580;5.170;2023-03-12T06:00:20;6.70;99.90
47382;DHT22;33128;51.580;5.170;2023-03-12T06:02:46;6.50;99.90
47382;DHT22;33128;51.580;5.170;2023-03-12T06:05:12;6.70;99.90
47382;DHT22;33128;51.580;5.170;2023-03-12T06:07:37;6.90;99.90
47382;DHT22;33128;51.580;5.170;2023-03-12T06:10:03;6.80;99.90
47382;DHT22;33128;51.580;5.170;2023-03-12T06:12:29;6.80;99.90
47382;DHT22;33128;51.580;5.170;2023-03-12T06:14:56;6.40;99.90
47382;DHT22;33128;51.580;5.170;2023-03-12T06:17:22;6.40;99.90
47382;DHT22;33128;51.580;5.170;2023-03-12T06:19:51;6.60;99.90
47382;DHT22;33128;51.580;5.170;2023-03-12T06:22:17;6.50;99.90
47382;DHT22;33128;51.580;5.170;2023-03-12T06:24:43;6.60;99.90
47382;DHT22;33128;51.580;5.170;2023-03-12T06:27:12;6.40;99.90
47382;DHT22;33128;51.580;5.170;2023-03-12T06:29:38;6.20;99.90
47382;DHT22;33128;51.580;5.170;2023-03-12T06:32:04;6.50;99.90
47382;DHT22;33128;51.580;5.170;2023-03-12T06:34:29;6.60;99.90
47382;DHT22;33128;51.580;5.170;2023-03-12T06:36:55;6.40;99.90
47382;DHT22;33128;51.580;5.170;2023-03-12T06:39:21;6.60;99.90
47382;DHT22;33128;51.580;5.170;2023-03-12T06:41:46;6.50;99.90
47382;DHT22;33128;51.580;5.170;2023-03-12T06:44:12;6.40;99.90
47382;DHT22;33128;51.580;5.170;2023-03-12T06:46:38;6.20;99.90
47382;DHT22;33128;51.580;5.170;2023-03-12T06:49:04;6.40;99.90
47382;DHT22;33128;51.580;5.170;2023-03-12T06:51:30;8.40;99.90
47382;DHT22;33128;51.580;5.170;2023-03-12T06:53:55;9.60;99.90
47382;DHT22;33128;51.580;5.170;2023-03-12T06:56:21;10.30;99.90
47382;DHT22;33128;51.580;5.170;2023-03-12T06:58:47;10.60;99.90
47382;DHT22;33128;51.580;5.170;2023-03-12T07:01:13;10.90;99.90
47382;DHT22;33128;51.580;5.170;2023-03-12T07:03:39;11.20;99.90
47382;DHT22;33128;51.580;5.170;2023-03-12T07:06:12;11.30;99.90
47382;DHT22;33128;51.580;5.170;2023-03-12T07:08:41;11.50;99.90
47382;DHT22;33128;51.580;5.170;2023-03-12T07:11:07;11.40;99.90
47382;DHT22;33128;51.580;5.170;2023-03-12T07:13:33;11.40;99.90
47382;DHT22;33128;51.580;5.170;2023-03-12T07:15:59;11.50;99.90
47382;DHT22;33128;51.580;5.170;2023-03-12T07:18:25;11.50;99.90
47382;DHT22;33128;51.580;5.170;2023-03-12T07:20:51;11.60;99.90
47382;DHT22;33128;51.580;5.170;2023-03-12T07:23:16;11.60;99.90
47382;DHT22;33128;51.580;5.170;2023-03-12T07:25:43;11.60;99.90
47382;DHT22;33128;51.580;5.170;2023-03-12T07:28:09;11.60;99.90
47382;DHT22;33128;51.580;5.170;2023-03-12T07:30:35;11.70;99.90
47382;DHT22;33128;51.580;5.170;2023-03-12T07:33:02;11.70;99.90
47382;DHT22;33128;51.580;5.170;2023-03-12T07:35:29;11.60;99.90
47382;DHT22;33128;51.580;5.170;2023-03-12T07:37:55;11.70;99.90
47382;DHT22;33128;51.580;5.170;2023-03-12T07:40:21;11.70;99.90
47382;DHT22;33128;51.580;5.170;2023-03-12T07:42:50;11.70;99.90
47382;DHT22;33128;51.580;5.170;2023-03-12T07:45:16;11.70;99.90
47382;DHT22;33128;51.580;5.170;2023-03-12T07:47:42;11.70;99.90
47382;DHT22;33128;51.580;5.170;2023-03-12T07:50:08;11.80;99.90
47382;DHT22;33128;51.580;5.170;2023-03-12T07:52:34;11.80;99.90
47382;DHT22;33128;51.580;5.170;2023-03-12T07:54:59;11.80;99.90
47382;DHT22;33128;51.580;5.170;2023-03-12T07:57:25;11.80;99.90
47382;DHT22;33128;51.580;5.170;2023-03-12T07:59:53;11.80;99.90
47382;DHT22;33128;51.580;5.170;2023-03-12T08:02:19;11.80;99.90
47382;DHT22;33128;51.580;5.170;2023-03-12T08:04:45;11.90;99.90
47382;DHT22;33128;51.580;5.170;2023-03-12T08:07:11;11.90;99.90
47382;DHT22;33128;51.580;5.170;2023-03-12T08:09:46;11.90;99.90
47382;DHT22;33128;51.580;5.170;2023-03-12T08:12:13;12.00;99.90
47382;DHT22;33128;51.580;5.170;2023-03-12T08:14:39;12.00;99.90
47382;DHT22;33128;51.580;5.170;2023-03-12T08:17:04;12.00;99.90
47382;DHT22;33128;51.580;5.170;2023-03-12T08:19:30;12.00;99.90
47382;DHT22;33128;51.580;5.170;2023-03-12T08:21:59;11.90;99.90
47382;DHT22;33128;51.580;5.170;2023-03-12T08:24:24;12.00;99.90
47382;DHT22;33128;51.580;5.170;2023-03-12T08:26:50;12.00;99.90
47382;DHT22;33128;51.580;5.170;2023-03-12T08:29:16;12.00;99.90
47382;DHT22;33128;51.580;5.170;2023-03-12T08:31:42;12.00;99.90
47382;DHT22;33128;51.580;5.170;2023-03-12T08:34:07;12.00;99.90
47382;DHT22;33128;51.580;5.170;2023-03-12T08:36:33;12.00;99.90
47382;DHT22;33128;51.580;5.170;2023-03-12T08:39:02;12.00;99.90
47382;DHT22;33128;51.580;5.170;2023-03-12T08:41:27;12.10;99.90
47382;DHT22;33128;51.580;5.170;2023-03-12T08:43:54;12.10;99.90
47382;DHT22;33128;51.580;5.170;2023-03-12T08:46:20;12.10;99.90
47382;DHT22;33128;51.580;5.170;2023-03-12T08:48:46;12.10;99.90
47382;DHT22;33128;51.580;5.170;2023-03-12T08:51:11;12.10;99.90
47382;DHT22;33128;51.580;5.170;2023-03-12T08:53:37;12.10;99.90
47382;DHT22;33128;51.580;5.170;2023-03-12T08:56:03;12.20;99.90
47382;DHT22;33128;51.580;5.170;2023-03-12T08:58:32;12.20;99.90
47382;DHT22;33128;51.580;5.170;2023-03-12T09:00:57;12.10;99.90
47382;DHT22;33128;51.580;5.170;2023-03-12T09:03:23;12.20;99.90
47382;DHT22;33128;51.580;5.170;2023-03-12T09:05:50;12.30;99.90
47382;DHT22;33128;51.580;5.170;2023-03-12T09:08:25;12.20;99.90
47382;DHT22;33128;51.580;5.170;2023-03-12T09:10:54;12.30;99.90
47382;DHT22;33128;51.580;5.170;2023-03-12T09:13:19;12.30;99.90
47382;DHT22;33128;51.580;5.170;2023-03-12T09:15:45;12.40;99.90
47382;DHT22;33128;51.580;5.170;2023-03-12T09:18:11;12.40;99.90
47382;DHT22;33128;51.580;5.170;2023-03-12T09:20:36;12.40;99.90
47382;DHT22;33128;51.580;5.170;2023-03-12T09:23:02;12.40;99.90
47382;DHT22;33128;51.580;5.170;2023-03-12T09:25:27;12.40;99.90
47382;DHT22;33128;51.580;5.170;2023-03-12T09:27:53;12.40;99.90
47382;DHT22;33128;51.580;5.170;2023-03-12T09:30:20;12.40;99.90
47382;DHT22;33128;51.580;5.170;2023-03-12T09:32:46;12.50;99.90
47382;DHT22;33128;51.580;5.170;2023-03-12T09:35:16;12.50;99.90
47382;DHT22;33128;51.580;5.170;2023-03-12T09:37:41;12.60;99.90
47382;DHT22;33128;51.580;5.170;2023-03-12T09:40:10;12.60;99.90
47382;DHT22;33128;51.580;5.170;2023-03-12T09:42:54;12.60;99.90
47382;DHT22;33128;51.580;5.170;2023-03-12T09:45:24;12.70;99.90
47382;DHT22;33128;51.580;5.170;2023-03-12T09:48:00;12.70;99.90
47382;DHT22;33128;51.580;5.170;2023-03-12T09:50:36;12.70;99.90
47382;DHT22;33128;51.580;5.170;2023-03-12T09:53:25;12.70;99.90
47382;DHT22;33128;51.580;5.170;2023-03-12T09:55:55;12.70;99.90
47382;DHT22;33128;51.580;5.170;2023-03-12T09:58:30;12.70;99.90
47382;DHT22;33128;51.580;5.170;2023-03-12T10:06:42;12.80;99.90
47382;DHT22;33128;51.580;5.170;2023-03-12T10:20:28;13.10;99.90
47382;DHT22;33128;51.580;5.170;2023-03-12T10:23:21;13.10;99.90
47382;DHT22;33128;51.580;5.170;2023-03-12T10:26:09;13.00;99.90
47382;DHT22;33128;51.580;5.170;2023-03-12T10:28:45;13.00;99.90
47382;DHT22;33128;51.580;5.170;2023-03-12T10:31:24;13.10;99.90
47382;DHT22;33128;51.580;5.170;2023-03-12T10:33:56;13.10;99.90
47382;DHT22;33128;51.580;5.170;2023-03-12T10:36:43;13.20;99.90
47382;DHT22;33128;51.580;5.170;2023-03-12T10:39:17;13.20;99.90
47382;DHT22;33128;51.580;5.170;2023-03-12T10:41:45;13.20;99.90
47382;DHT22;33128;51.580;5.170;2023-03-12T10:44:17;13.30;99.90
47382;DHT22;33128;51.580;5.170;2023-03-12T10:47:06;13.30;99.90
47382;DHT22;33128;51.580;5.170;2023-03-12T10:49:37;13.40;99.90
47382;DHT22;33128;51.580;5.170;2023-03-12T10:54:37;13.50;99.90
47382;DHT22;33128;51.580;5.170;2023-03-12T10:57:05;13.60;99.90
47382;DHT22;33128;51.580;5.170;2023-03-12T10:59:35;13.70;99.90
47382;DHT22;33128;51.580;5.170;2023-03-12T11:02:09;13.70;99.90
47382;DHT22;33128;51.580;5.170;2023-03-12T11:04:51;13.70;99.90
47382;DHT22;33128;51.580;5.170;2023-03-12T11:07:21;13.90;99.90
47382;DHT22;33128;51.580;5.170;2023-03-12T11:12:30;13.90;99.90
47382;DHT22;33128;51.580;5.170;2023-03-12T11:14:57;13.90;99.90
47382;DHT22;33128;51.580;5.170;2023-03-12T11:17:25;13.80;99.90
47382;DHT22;33128;51.580;5.170;2023-03-12T11:19:50;13.90;99.90
47382;DHT22;33128;51.580;5.170;2023-03-12T11:22:28;14.10;99.90
47382;DHT22;33128;51.580;5.170;2023-03-12T11:24:58;14.30;99.90
47382;DHT22;33128;51.580;5.170;2023-03-12T11:27:52;14.30;99.90
47382;DHT22;33128;51.580;5.170;2023-03-12T11:30:25;14.30;99.90
47382;DHT22;33128;51.580;5.170;2023-03-12T11:32:54;14.30;99.90
47382;DHT22;33128;51.580;5.170;2023-03-12T11:38:32;14.30;99.90
47382;DHT22;33128;51.580;5.170;2023-03-12T11:47:05;15.10;99.90
47382;DHT22;33128;51.580;5.170;2023-03-12T11:52:47;15.40;99.90
47382;DHT22;33128;51.580;5.170;2023-03-12T11:55:40;15.60;99.90
47382;DHT22;33128;51.580;5.170;2023-03-12T11:58:22;15.70;99.90
47382;DHT22;33128;51.580;5.170;2023-03-12T12:06:56;16.20;99.90
47382;DHT22;33128;51.580;5.170;2023-03-12T12:17:41;16.90;99.90
47382;DHT22;33128;51.580;5.170;2023-03-12T12:40:38;14.80;99.90
47382;DHT22;33128;51.580;5.170;2023-03-12T12:45:26;14.60;99.90
47382;DHT22;33128;51.580;5.170;2023-03-12T12:47:58;14.50;99.90
47382;DHT22;33128;51.580;5.170;2023-03-12T12:50:28;14.50;99.90
47382;DHT22;33128;51.580;5.170;2023-03-12T12:53:24;14.60;99.90
47382;DHT22;33128;51.580;5.170;2023-03-12T12:56:32;14.80;99.90
47382;DHT22;33128;51.580;5.170;2023-03-12T13:01:47;15.60;99.90
47382;DHT22;33128;51.580;5.170;2023-03-12T13:04:28;15.90;99.90
47382;DHT22;33128;51.580;5.170;2023-03-12T13:09:45;16.80;99.90
47382;DHT22;33128;51.580;5.170;2023-03-12T13:14:41;16.80;99.90
47382;DHT22;33128;51.580;5.170;2023-03-12T13:19:52;16.70;99.90
47382;DHT22;33128;51.580;5.170;2023-03-12T13:22:33;16.70;99.90
47382;DHT22;33128;51.580;5.170;2023-03-12T13:27:44;16.60;99.90
47382;DHT22;33128;51.580;5.170;2023-03-12T13:45:30;15.60;99.90
47382;DHT22;33128;51.580;5.170;2023-03-12T13:48:01;15.50;99.90
47382;DHT22;33128;51.580;5.170;2023-03-12T13:50:32;15.40;99.90
47382;DHT22;33128;51.580;5.170;2023-03-12T13:53:06;15.30;99.90
47382;DHT22;33128;51.580;5.170;2023-03-12T13:55:35;15.20;99.90
47382;DHT22;33128;51.580;5.170;2023-03-12T14:00:34;15.10;99.90
47382;DHT22;33128;51.580;5.170;2023-03-12T14:06:07;15.30;99.90
47382;DHT22;33128;51.580;5.170;2023-03-12T14:08:46;15.30;99.90
47382;DHT22;33128;51.580;5.170;2023-03-12T14:17:03;15.40;99.90
47382;DHT22;33128;51.580;5.170;2023-03-12T14:19:32;15.30;99.90
47382;DHT22;33128;51.580;5.170;2023-03-12T14:22:02;15.50;99.90
47382;DHT22;33128;51.580;5.170;2023-03-12T14:24:37;15.80;99.90
47382;DHT22;33128;51.580;5.170;2023-03-12T14:27:04;15.90;99.90
47382;DHT22;33128;51.580;5.170;2023-03-12T14:29:44;16.00;99.90
47382;DHT22;33128;51.580;5.170;2023-03-12T14:32:30;16.00;99.90
47382;DHT22;33128;51.580;5.170;2023-03-12T14:35:17;15.90;99.90
47382;DHT22;33128;51.580;5.170;2023-03-12T14:37:55;15.80;99.90
47382;DHT22;33128;51.580;5.170;2023-03-12T14:40:25;15.80;99.90
47382;DHT22;33128;51.580;5.170;2023-03-12T14:42:58;15.70;99.90
47382;DHT22;33128;51.580;5.170;2023-03-12T14:45:24;15.70;99.90
47382;DHT22;33128;51.580;5.170;2023-03-12T14:47:56;15.90;99.90
47382;DHT22;33128;51.580;5.170;2023-03-12T14:50:29;16.20;99.90
47382;DHT22;33128;51.580;5.170;2023-03-12T14:53:16;16.50;99.90
47382;DHT22;33128;51.580;5.170;2023-03-12T14:55:41;16.70;99.90
47382;DHT22;33128;51.580;5.170;2023-03-12T14:58:16;16.90;99.90
47382;DHT22;33128;51.580;5.170;2023-03-12T15:00:44;17.00;99.90
47382;DHT22;33128;51.580;5.170;2023-03-12T15:03:22;16.90;99.90
47382;DHT22;33128;51.580;5.170;2023-03-12T15:05:49;16.90;99.90
47382;DHT22;33128;51.580;5.170;2023-03-12T15:08:16;17.00;99.90
47382;DHT22;33128;51.580;5.170;2023-03-12T15:10:57;17.10;99.90
47382;DHT22;33128;51.580;5.170;2023-03-12T15:13:25;17.10;99.90
47382;DHT22;33128;51.580;5.170;2023-03-12T15:15:53;17.10;99.90
47382;DHT22;33128;51.580;5.170;2023-03-12T15:18:26;17.00;99.90
47382;DHT22;33128;51.580;5.170;2023-03-12T15:20:53;16.90;99.90
47382;DHT22;33128;51.580;5.170;2023-03-12T15:23:22;16.80;99.90
47382;DHT22;33128;51.580;5.170;2023-03-12T15:26:11;16.60;99.90
47382;DHT22;33128;51.580;5.170;2023-03-12T15:28:38;16.30;99.90
47382;DHT22;33128;51.580;5.170;2023-03-12T15:31:15;16.20;99.90
47382;DHT22;33128;51.580;5.170;2023-03-12T15:33:43;16.00;99.90
47382;DHT22;33128;51.580;5.170;2023-03-12T15:36:23;16.00;99.90
47382;DHT22;33128;51.580;5.170;2023-03-12T15:38:52;16.00;99.90
47382;DHT22;33128;51.580;5.170;2023-03-12T15:41:42;15.90;99.90
47382;DHT22;33128;51.580;5.170;2023-03-12T15:44:22;15.80;99.90
47382;DHT22;33128;51.580;5.170;2023-03-12T15:46:53;15.60;99.90
47382;DHT22;33128;51.580;5.170;2023-03-12T15:49:26;15.50;99.90
47382;DHT22;33128;51.580;5.170;2023-03-12T15:52:05;15.40;99.90
47382;DHT22;33128;51.580;5.170;2023-03-12T15:54:32;15.30;99.90
47382;DHT22;33128;51.580;5.170;2023-03-12T15:57:30;15.30;99.90
47382;DHT22;33128;51.580;5.170;2023-03-12T16:05:17;15.40;99.90
47382;DHT22;33128;51.580;5.170;2023-03-12T16:07:43;15.40;99.90
47382;DHT22;33128;51.580;5.170;2023-03-12T16:10:12;15.40;99.90
47382;DHT22;33128;51.580;5.170;2023-03-12T16:12:40;15.40;99.90
47382;DHT22;33128;51.580;5.170;2023-03-12T16:15:14;15.40;99.90
47382;DHT22;33128;51.580;5.170;2023-03-12T16:17:40;15.30;99.90
47382;DHT22;33128;51.580;5.170;2023-03-12T16:20:10;15.30;99.90
47382;DHT22;33128;51.580;5.170;2023-03-12T16:22:36;15.30;99.90
47382;DHT22;33128;51.580;5.170;2023-03-12T16:25:01;15.20;99.90
47382;DHT22;33128;51.580;5.170;2023-03-12T16:27:27;15.20;99.90
47382;DHT22;33128;51.580;5.170;2023-03-12T16:29:52;15.20;99.90
47382;DHT22;33128;51.580;5.170;2023-03-12T16:32:18;15.20;99.90
47382;DHT22;33128;51.580;5.170;2023-03-12T16:34:44;15.20;99.90
47382;DHT22;33128;51.580;5.170;2023-03-12T16:37:10;15.20;99.90
47382;DHT22;33128;51.580;5.170;2023-03-12T16:39:37;15.10;99.90
47382;DHT22;33128;51.580;5.170;2023-03-12T16:42:08;15.00;99.90
47382;DHT22;33128;51.580;5.170;2023-03-12T16:44:39;15.00;99.90
47382;DHT22;33128;51.580;5.170;2023-03-12T16:47:09;15.00;99.90
47382;DHT22;33128;51.580;5.170;2023-03-12T16:49:36;14.90;99.90
47382;DHT22;33128;51.580;5.170;2023-03-12T16:52:11;14.90;99.90
47382;DHT22;33128;51.580;5.170;2023-03-12T16:54:37;14.90;99.90
47382;DHT22;33128;51.580;5.170;2023-03-12T16:57:02;14.80;99.90
47382;DHT22;33128;51.580;5.170;2023-03-12T16:59:28;14.80;99.90
47382;DHT22;33128;51.580;5.170;2023-03-12T17:01:57;14.80;99.90
47382;DHT22;33128;51.580;5.170;2023-03-12T17:04:23;14.80;99.90
47382;DHT22;33128;51.580;5.170;2023-03-12T17:06:48;14.70;99.90
47382;DHT22;33128;51.580;5.170;2023-03-12T17:09:14;14.70;99.90
47382;DHT22;33128;51.580;5.170;2023-03-12T17:11:39;14.70;99.90
47382;DHT22;33128;51.580;5.170;2023-03-12T17:14:18;14.70;99.90
47382;DHT22;33128;51.580;5.170;2023-03-12T17:16:45;14.60;99.90
47382;DHT22;33128;51.580;5.170;2023-03-12T17:19:11;14.60;99.90
47382;DHT22;33128;51.580;5.170;2023-03-12T17:21:37;14.60;99.90
47382;DHT22;33128;51.580;5.170;2023-03-12T17:24:03;14.60;99.90
47382;DHT22;33128;51.580;5.170;2023-03-12T17:26:29;14.60;99.90
47382;DHT22;33128;51.580;5.170;2023-03-12T17:28:54;14.60;99.90
47382;DHT22;33128;51.580;5.170;2023-03-12T17:31:20;14.60;99.90
47382;DHT22;33128;51.580;5.170;2023-03-12T17:33:46;14.60;99.90
47382;DHT22;33128;51.580;5.170;2023-03-12T17:36:11;14.50;99.90
47382;DHT22;33128;51.580;5.170;2023-03-12T17:38:37;14.60;99.90
47382;DHT22;33128;51.580;5.170;2023-03-12T17:41:05;14.50;99.90
47382;DHT22;33128;51.580;5.170;2023-03-12T17:43:32;14.50;99.90
47382;DHT22;33128;51.580;5.170;2023-03-12T17:46:03;14.50;99.90
47382;DHT22;33128;51.580;5.170;2023-03-12T17:48:30;14.50;99.90
47382;DHT22;33128;51.580;5.170;2023-03-12T17:50:55;14.50;99.90
47382;DHT22;33128;51.580;5.170;2023-03-12T17:53:23;14.50;99.90
47382;DHT22;33128;51.580;5.170;2023-03-12T17:55:48;14.50;99.90
47382;DHT22;33128;51.580;5.170;2023-03-12T17:58:14;14.50;99.90